sensor_id;sensor_type;location;lat;lon;timestamp;P1;durP1;ratioP1;P2;durP2;ratioP2
50126;SDS011;36024;47.974;16.398;2023-05-23T00:01:19;8.47;;;7.60;;
50126;SDS011;36024;47.974;16.398;2023-05-23T00:03:46;8.40;;;7.70;;
50126;SDS011;36024;47.974;16.398;2023-05-23T00:06:17;8.47;;;7.70;;
50126;SDS011;36024;47.974;16.398;2023-05-23T00:08:46;9.87;;;7.57;;
50126;SDS011;36024;47.974;16.398;2023-05-23T00:11:13;9.47;;;8.43;;
50126;SDS011;36024;47.974;16.398;2023-05-23T00:13:40;10.03;;;8.03;;
50126;SDS011;36024;47.974;16.398;2023-05-23T00:16:07;8.93;;;8.13;;
50126;SDS011;36024;47.974;16.398;2023-05-23T00:18:37;9.40;;;8.60;;
50126;SDS011;36024;47.974;16.398;2023-05-23T00:21:08;9.30;;;8.43;;
50126;SDS011;36024;47.974;16.398;2023-05-23T00:23:35;8.47;;;7.70;;
50126;SDS011;36024;47.974;16.398;2023-05-23T00:26:01;9.30;;;8.40;;
50126;SDS011;36024;47.974;16.398;2023-05-23T00:28:29;9.00;;;8.20;;
50126;SDS011;36024;47.974;16.398;2023-05-23T00:30:55;8.90;;;8.10;;
50126;SDS011;36024;47.974;16.398;2023-05-23T00:33:22;9.07;;;8.30;;
50126;SDS011;36024;47.974;16.398;2023-05-23T00:35:49;9.40;;;8.50;;
50126;SDS011;36024;47.974;16.398;2023-05-23T00:38:16;8.73;;;8.03;;
50126;SDS011;36024;47.974;16.398;2023-05-23T00:40:43;9.57;;;8.70;;
50126;SDS011;36024;47.974;16.398;2023-05-23T00:43:10;9.50;;;8.60;;
50126;SDS011;36024;47.974;16.398;2023-05-23T00:45:38;9.43;;;8.47;;
50126;SDS011;36024;47.974;16.398;2023-05-23T00:48:05;9.03;;;8.23;;
50126;SDS011;36024;47.974;16.398;2023-05-23T00:50:32;9.77;;;8.83;;
50126;SDS011;36024;47.974;16.398;2023-05-23T00:52:59;9.53;;;8.73;;
50126;SDS011;36024;47.974;16.398;2023-05-23T00:55:27;10.00;;;9.00;;
50126;SDS011;36024;47.974;16.398;2023-05-23T00:57:54;9.20;;;8.33;;
50126;SDS011;36024;47.974;16.398;2023-05-23T01:00:23;8.93;;;8.13;;
50126;SDS011;36024;47.974;16.398;2023-05-23T01:02:50;9.93;;;8.93;;
50126;SDS011;36024;47.974;16.398;2023-05-23T01:05:18;9.00;;;8.20;;
50126;SDS011;36024;47.974;16.398;2023-05-23T01:07:48;9.60;;;8.57;;
50126;SDS011;36024;47.974;16.398;2023-05-23T01:10:17;9.30;;;8.30;;
50126;SDS011;36024;47.974;16.398;2023-05-23T01:15:32;10.60;;;9.60;;
50126;SDS011;36024;47.974;16.398;2023-05-23T01:20:47;10.07;;;9.20;;
50126;SDS011;36024;47.974;16.398;2023-05-23T01:23:22;10.37;;;9.47;;
50126;SDS011;36024;47.974;16.398;2023-05-23T01:28:53;10.20;;;9.30;;
50126;SDS011;36024;47.974;16.398;2023-05-23T01:31:21;9.80;;;8.97;;
50126;SDS011;36024;47.974;16.398;2023-05-23T01:33:50;10.17;;;9.27;;
50126;SDS011;36024;47.974;16.398;2023-05-23T01:36:18;10.03;;;9.03;;
50126;SDS011;36024;47.974;16.398;2023-05-23T01:38:46;10.03;;;9.07;;
50126;SDS011;36024;47.974;16.398;2023-05-23T01:41:12;10.60;;;9.40;;
50126;SDS011;36024;47.974;16.398;2023-05-23T01:43:39;9.50;;;8.70;;
50126;SDS011;36024;47.974;16.398;2023-05-23T01:46:06;9.70;;;8.80;;
50126;SDS011;36024;47.974;16.398;2023-05-23T01:48:33;9.53;;;8.73;;
50126;SDS011;36024;47.974;16.398;2023-05-23T01:51:00;9.47;;;8.67;;
50126;SDS011;36024;47.974;16.398;2023-05-23T01:53:27;10.10;;;9.17;;
50126;SDS011;36024;47.974;16.398;2023-05-23T01:55:54;10.27;;;9.30;;
50126;SDS011;36024;47.974;16.398;2023-05-23T01:58:21;10.10;;;9.30;;
50126;SDS011;36024;47.974;16.398;2023-05-23T02:00:48;10.80;;;9.70;;
50126;SDS011;36024;47.974;16.398;2023-05-23T02:03:15;10.67;;;9.60;;
50126;SDS011;36024;47.974;16.398;2023-05-23T02:05:42;10.20;;;9.30;;
50126;SDS011;36024;47.974;16.398;2023-05-23T02:08:09;9.87;;;9.07;;
50126;SDS011;36024;47.974;16.398;2023-05-23T02:10:36;10.87;;;9.90;;
50126;SDS011;36024;47.974;16.398;2023-05-23T02:13:03;10.40;;;9.50;;
50126;SDS011;36024;47.974;16.398;2023-05-23T02:15:30;11.00;;;10.00;;
50126;SDS011;36024;47.974;16.398;2023-05-23T02:17:57;10.63;;;9.73;;
50126;SDS011;36024;47.974;16.398;2023-05-23T02:20:25;10.73;;;9.83;;
50126;SDS011;36024;47.974;16.398;2023-05-23T02:22:51;11.10;;;10.00;;
50126;SDS011;36024;47.974;16.398;2023-05-23T02:25:18;10.50;;;9.60;;
50126;SDS011;36024;47.974;16.398;2023-05-23T02:27:45;10.63;;;9.73;;
50126;SDS011;36024;47.974;16.398;2023-05-23T02:30:12;10.67;;;9.53;;
50126;SDS011;36024;47.974;16.398;2023-05-23T02:32:39;11.07;;;10.07;;
50126;SDS011;36024;47.974;16.398;2023-05-23T02:35:06;10.37;;;9.47;;
50126;SDS011;36024;47.974;16.398;2023-05-23T02:37:33;10.67;;;9.67;;
50126;SDS011;36024;47.974;16.398;2023-05-23T02:40:00;10.63;;;9.73;;
50126;SDS011;36024;47.974;16.398;2023-05-23T02:42:26;11.20;;;10.10;;
50126;SDS011;36024;47.974;16.398;2023-05-23T02:44:53;10.73;;;9.83;;
50126;SDS011;36024;47.974;16.398;2023-05-23T02:47:21;11.23;;;10.27;;
50126;SDS011;36024;47.974;16.398;2023-05-23T02:49:48;10.70;;;9.80;;
50126;SDS011;36024;47.974;16.398;2023-05-23T02:52:15;11.20;;;10.30;;
50126;SDS011;36024;47.974;16.398;2023-05-23T02:54:43;11.23;;;10.13;;
50126;SDS011;36024;47.974;16.398;2023-05-23T02:57:09;11.37;;;10.23;;
50126;SDS011;36024;47.974;16.398;2023-05-23T02:59:39;11.00;;;10.03;;
50126;SDS011;36024;47.974;16.398;2023-05-23T03:02:06;10.37;;;9.37;;
50126;SDS011;36024;47.974;16.398;2023-05-23T03:04:33;11.33;;;10.40;;
50126;SDS011;36024;47.974;16.398;2023-05-23T03:07:00;10.73;;;9.73;;
50126;SDS011;36024;47.974;16.398;2023-05-23T03:09:28;10.77;;;9.87;;
50126;SDS011;36024;47.974;16.398;2023-05-23T03:11:54;12.07;;;10.90;;
50126;SDS011;36024;47.974;16.398;2023-05-23T03:14:21;11.57;;;10.47;;
50126;SDS011;36024;47.974;16.398;2023-05-23T03:16:48;11.17;;;10.10;;
50126;SDS011;36024;47.974;16.398;2023-05-23T03:19:14;11.67;;;10.67;;
50126;SDS011;36024;47.974;16.398;2023-05-23T03:21:41;11.20;;;10.20;;
50126;SDS011;36024;47.974;16.398;2023-05-23T03:24:09;12.60;;;10.50;;
50126;SDS011;36024;47.974;16.398;2023-05-23T03:26:36;11.50;;;10.30;;
50126;SDS011;36024;47.974;16.398;2023-05-23T03:29:02;11.63;;;10.53;;
50126;SDS011;36024;47.974;16.398;2023-05-23T03:31:29;11.27;;;10.27;;
50126;SDS011;36024;47.974;16.398;2023-05-23T03:33:56;11.93;;;10.93;;
50126;SDS011;36024;47.974;16.398;2023-05-23T03:36:22;12.00;;;11.00;;
50126;SDS011;36024;47.974;16.398;2023-05-23T03:38:51;11.73;;;10.63;;
50126;SDS011;36024;47.974;16.398;2023-05-23T03:41:18;11.50;;;10.50;;
50126;SDS011;36024;47.974;16.398;2023-05-23T03:43:45;10.67;;;9.77;;
50126;SDS011;36024;47.974;16.398;2023-05-23T03:46:12;11.47;;;10.43;;
50126;SDS011;36024;47.974;16.398;2023-05-23T03:48:40;10.47;;;9.57;;
50126;SDS011;36024;47.974;16.398;2023-05-23T03:51:07;11.83;;;10.77;;
50126;SDS011;36024;47.974;16.398;2023-05-23T03:53:34;11.60;;;10.43;;
50126;SDS011;36024;47.974;16.398;2023-05-23T03:56:02;11.93;;;10.70;;
50126;SDS011;36024;47.974;16.398;2023-05-23T03:58:30;11.80;;;10.70;;
50126;SDS011;36024;47.974;16.398;2023-05-23T04:01:00;11.53;;;10.30;;
50126;SDS011;36024;47.974;16.398;2023-05-23T04:03:29;11.37;;;10.47;;
50126;SDS011;36024;47.974;16.398;2023-05-23T04:05:58;11.07;;;10.13;;
50126;SDS011;36024;47.974;16.398;2023-05-23T04:08:26;11.03;;;10.03;;
50126;SDS011;36024;47.974;16.398;2023-05-23T04:10:54;10.57;;;9.47;;
50126;SDS011;36024;47.974;16.398;2023-05-23T04:13:23;10.90;;;9.90;;
50126;SDS011;36024;47.974;16.398;2023-05-23T04:15:51;10.57;;;9.50;;
50126;SDS011;36024;47.974;16.398;2023-05-23T04:18:18;10.03;;;9.03;;
50126;SDS011;36024;47.974;16.398;2023-05-23T04:20:45;10.50;;;9.43;;
50126;SDS011;36024;47.974;16.398;2023-05-23T04:23:12;10.37;;;9.30;;
50126;SDS011;36024;47.974;16.398;2023-05-23T04:25:42;10.53;;;9.50;;
50126;SDS011;36024;47.974;16.398;2023-05-23T04:28:35;10.80;;;9.70;;
50126;SDS011;36024;47.974;16.398;2023-05-23T04:31:03;10.40;;;9.47;;
50126;SDS011;36024;47.974;16.398;2023-05-23T04:33:33;10.13;;;9.33;;
50126;SDS011;36024;47.974;16.398;2023-05-23T04:36:03;11.07;;;10.07;;
50126;SDS011;36024;47.974;16.398;2023-05-23T04:38:30;10.47;;;9.57;;
50126;SDS011;36024;47.974;16.398;2023-05-23T04:40:59;11.20;;;10.20;;
50126;SDS011;36024;47.974;16.398;2023-05-23T04:43:55;11.67;;;10.67;;
50126;SDS011;36024;47.974;16.398;2023-05-23T04:46:27;11.77;;;10.57;;
50126;SDS011;36024;47.974;16.398;2023-05-23T04:49:11;11.00;;;9.90;;
50126;SDS011;36024;47.974;16.398;2023-05-23T04:51:38;11.13;;;10.13;;
50126;SDS011;36024;47.974;16.398;2023-05-23T04:54:26;10.83;;;9.83;;
50126;SDS011;36024;47.974;16.398;2023-05-23T04:56:54;11.17;;;10.10;;
50126;SDS011;36024;47.974;16.398;2023-05-23T04:59:22;11.33;;;10.23;;
50126;SDS011;36024;47.974;16.398;2023-05-23T05:01:49;10.60;;;9.70;;
50126;SDS011;36024;47.974;16.398;2023-05-23T05:04:17;10.90;;;9.97;;
50126;SDS011;36024;47.974;16.398;2023-05-23T05:06:44;10.60;;;9.60;;
50126;SDS011;36024;47.974;16.398;2023-05-23T05:09:10;10.83;;;9.93;;
50126;SDS011;36024;47.974;16.398;2023-05-23T05:11:37;11.23;;;10.20;;
50126;SDS011;36024;47.974;16.398;2023-05-23T05:14:04;11.23;;;9.40;;
50126;SDS011;36024;47.974;16.398;2023-05-23T05:16:33;10.43;;;9.53;;
50126;SDS011;36024;47.974;16.398;2023-05-23T05:19:00;10.30;;;9.50;;
50126;SDS011;36024;47.974;16.398;2023-05-23T05:21:27;10.93;;;10.03;;
50126;SDS011;36024;47.974;16.398;2023-05-23T05:23:53;10.63;;;9.63;;
50126;SDS011;36024;47.974;16.398;2023-05-23T05:26:20;10.33;;;9.43;;
50126;SDS011;36024;47.974;16.398;2023-05-23T05:28:48;10.60;;;9.67;;
50126;SDS011;36024;47.974;16.398;2023-05-23T05:31:14;10.87;;;9.80;;
50126;SDS011;36024;47.974;16.398;2023-05-23T05:33:42;11.03;;;10.03;;
50126;SDS011;36024;47.974;16.398;2023-05-23T05:36:13;11.20;;;10.17;;
50126;SDS011;36024;47.974;16.398;2023-05-23T05:38:40;11.27;;;10.27;;
50126;SDS011;36024;47.974;16.398;2023-05-23T05:41:06;11.73;;;10.53;;
50126;SDS011;36024;47.974;16.398;2023-05-23T05:43:38;11.53;;;10.27;;
50126;SDS011;36024;47.974;16.398;2023-05-23T05:46:04;15.30;;;11.03;;
50126;SDS011;36024;47.974;16.398;2023-05-23T05:48:31;14.97;;;10.40;;
50126;SDS011;36024;47.974;16.398;2023-05-23T05:51:02;20.77;;;11.60;;
50126;SDS011;36024;47.974;16.398;2023-05-23T05:53:31;12.10;;;10.73;;
50126;SDS011;36024;47.974;16.398;2023-05-23T05:55:58;12.73;;;11.47;;
50126;SDS011;36024;47.974;16.398;2023-05-23T05:58:25;11.63;;;10.63;;
50126;SDS011;36024;47.974;16.398;2023-05-23T06:00:56;11.80;;;10.60;;
50126;SDS011;36024;47.974;16.398;2023-05-23T06:03:24;11.10;;;10.10;;
50126;SDS011;36024;47.974;16.398;2023-05-23T06:05:53;11.90;;;10.80;;
50126;SDS011;36024;47.974;16.398;2023-05-23T06:08:20;12.43;;;11.37;;
50126;SDS011;36024;47.974;16.398;2023-05-23T06:10:47;12.77;;;11.57;;
50126;SDS011;36024;47.974;16.398;2023-05-23T06:13:15;13.80;;;12.40;;
50126;SDS011;36024;47.974;16.398;2023-05-23T06:15:45;13.70;;;12.47;;
50126;SDS011;36024;47.974;16.398;2023-05-23T06:18:12;14.23;;;12.93;;
50126;SDS011;36024;47.974;16.398;2023-05-23T06:20:39;12.77;;;11.77;;
50126;SDS011;36024;47.974;16.398;2023-05-23T06:23:11;12.67;;;11.57;;
50126;SDS011;36024;47.974;16.398;2023-05-23T06:25:38;12.80;;;11.50;;
50126;SDS011;36024;47.974;16.398;2023-05-23T06:28:05;12.67;;;11.47;;
50126;SDS011;36024;47.974;16.398;2023-05-23T06:30:32;13.00;;;11.80;;
50126;SDS011;36024;47.974;16.398;2023-05-23T06:33:03;13.27;;;12.00;;
50126;SDS011;36024;47.974;16.398;2023-05-23T06:35:30;12.90;;;11.80;;
50126;SDS011;36024;47.974;16.398;2023-05-23T06:37:59;12.87;;;11.77;;
50126;SDS011;36024;47.974;16.398;2023-05-23T06:40:26;12.20;;;11.10;;
50126;SDS011;36024;47.974;16.398;2023-05-23T06:42:53;15.13;;;11.23;;
50126;SDS011;36024;47.974;16.398;2023-05-23T06:45:44;11.90;;;10.80;;
50126;SDS011;36024;47.974;16.398;2023-05-23T06:48:12;11.27;;;10.33;;
50126;SDS011;36024;47.974;16.398;2023-05-23T06:50:39;12.93;;;11.57;;
50126;SDS011;36024;47.974;16.398;2023-05-23T06:53:08;12.07;;;10.87;;
50126;SDS011;36024;47.974;16.398;2023-05-23T06:55:35;13.40;;;11.70;;
50126;SDS011;36024;47.974;16.398;2023-05-23T06:58:03;12.90;;;11.80;;
50126;SDS011;36024;47.974;16.398;2023-05-23T07:00:31;12.43;;;11.23;;
50126;SDS011;36024;47.974;16.398;2023-05-23T07:03:09;12.70;;;11.60;;
50126;SDS011;36024;47.974;16.398;2023-05-23T07:05:36;12.20;;;11.10;;
50126;SDS011;36024;47.974;16.398;2023-05-23T07:08:08;12.27;;;11.00;;
50126;SDS011;36024;47.974;16.398;2023-05-23T07:10:37;13.10;;;11.70;;
50126;SDS011;36024;47.974;16.398;2023-05-23T07:13:20;12.17;;;11.07;;
50126;SDS011;36024;47.974;16.398;2023-05-23T07:15:47;12.47;;;11.17;;
50126;SDS011;36024;47.974;16.398;2023-05-23T07:18:13;11.55;;;10.38;;
50126;SDS011;36024;47.974;16.398;2023-05-23T07:20:40;11.20;;;10.20;;
50126;SDS011;36024;47.974;16.398;2023-05-23T07:23:14;11.55;;;10.45;;
50126;SDS011;36024;47.974;16.398;2023-05-23T07:25:42;10.98;;;9.93;;
50126;SDS011;36024;47.974;16.398;2023-05-23T07:28:29;11.15;;;10.13;;
50126;SDS011;36024;47.974;16.398;2023-05-23T07:30:57;10.20;;;9.15;;
50126;SDS011;36024;47.974;16.398;2023-05-23T07:33:24;9.02;;;8.23;;
50126;SDS011;36024;47.974;16.398;2023-05-23T07:35:56;8.98;;;8.25;;
50126;SDS011;36024;47.974;16.398;2023-05-23T07:38:22;10.05;;;9.20;;
50126;SDS011;36024;47.974;16.398;2023-05-23T07:40:49;10.38;;;9.35;;
50126;SDS011;36024;47.974;16.398;2023-05-23T07:43:35;10.38;;;9.38;;
50126;SDS011;36024;47.974;16.398;2023-05-23T07:46:02;10.05;;;9.00;;
50126;SDS011;36024;47.974;16.398;2023-05-23T07:48:29;9.38;;;8.45;;
50126;SDS011;36024;47.974;16.398;2023-05-23T07:50:57;9.00;;;8.20;;
50126;SDS011;36024;47.974;16.398;2023-05-23T07:53:24;9.98;;;9.15;;
50126;SDS011;36024;47.974;16.398;2023-05-23T07:55:51;9.65;;;8.85;;
50126;SDS011;36024;47.974;16.398;2023-05-23T07:58:19;9.82;;;8.60;;
50126;SDS011;36024;47.974;16.398;2023-05-23T08:00:46;9.63;;;8.73;;
50126;SDS011;36024;47.974;16.398;2023-05-23T08:03:37;9.80;;;9.00;;
50126;SDS011;36024;47.974;16.398;2023-05-23T08:06:09;9.75;;;8.95;;
50126;SDS011;36024;47.974;16.398;2023-05-23T08:08:37;9.77;;;7.90;;
50126;SDS011;36024;47.974;16.398;2023-05-23T08:11:05;8.00;;;7.20;;
50126;SDS011;36024;47.974;16.398;2023-05-23T08:13:38;8.50;;;7.78;;
50126;SDS011;36024;47.974;16.398;2023-05-23T08:16:30;7.75;;;7.05;;
50126;SDS011;36024;47.974;16.398;2023-05-23T08:18:58;8.65;;;7.82;;
50126;SDS011;36024;47.974;16.398;2023-05-23T08:21:25;9.48;;;8.68;;
50126;SDS011;36024;47.974;16.398;2023-05-23T08:23:52;8.48;;;7.78;;
50126;SDS011;36024;47.974;16.398;2023-05-23T08:26:19;8.55;;;7.75;;
50126;SDS011;36024;47.974;16.398;2023-05-23T08:28:46;8.65;;;7.85;;
50126;SDS011;36024;47.974;16.398;2023-05-23T08:31:13;9.02;;;8.23;;
50126;SDS011;36024;47.974;16.398;2023-05-23T08:33:40;8.85;;;8.15;;
50126;SDS011;36024;47.974;16.398;2023-05-23T08:36:07;9.73;;;8.35;;
50126;SDS011;36024;47.974;16.398;2023-05-23T08:38:34;7.82;;;7.10;;
50126;SDS011;36024;47.974;16.398;2023-05-23T08:41:20;8.20;;;7.50;;
50126;SDS011;36024;47.974;16.398;2023-05-23T08:43:51;7.80;;;7.20;;
50126;SDS011;36024;47.974;16.398;2023-05-23T08:46:24;8.38;;;7.65;;
50126;SDS011;36024;47.974;16.398;2023-05-23T08:48:52;8.38;;;7.68;;
50126;SDS011;36024;47.974;16.398;2023-05-23T08:51:22;8.77;;;7.97;;
50126;SDS011;36024;47.974;16.398;2023-05-23T08:53:51;8.00;;;7.30;;
50126;SDS011;36024;47.974;16.398;2023-05-23T08:56:23;8.45;;;7.68;;
50126;SDS011;36024;47.974;16.398;2023-05-23T08:58:51;8.05;;;7.22;;
50126;SDS011;36024;47.974;16.398;2023-05-23T09:01:20;8.02;;;7.22;;
50126;SDS011;36024;47.974;16.398;2023-05-23T09:03:51;7.88;;;7.28;;
50126;SDS011;36024;47.974;16.398;2023-05-23T09:06:25;7.80;;;7.10;;
50126;SDS011;36024;47.974;16.398;2023-05-23T09:08:52;8.63;;;7.70;;
50126;SDS011;36024;47.974;16.398;2023-05-23T09:11:22;9.02;;;7.22;;
50126;SDS011;36024;47.974;16.398;2023-05-23T09:13:51;8.35;;;7.43;;
50126;SDS011;36024;47.974;16.398;2023-05-23T09:16:20;8.93;;;7.10;;
50126;SDS011;36024;47.974;16.398;2023-05-23T09:18:50;8.02;;;7.32;;
50126;SDS011;36024;47.974;16.398;2023-05-23T09:21:19;8.57;;;7.68;;
50126;SDS011;36024;47.974;16.398;2023-05-23T09:24:04;8.00;;;7.40;;
50126;SDS011;36024;47.974;16.398;2023-05-23T09:26:31;7.80;;;7.20;;
50126;SDS011;36024;47.974;16.398;2023-05-23T09:28:59;8.07;;;7.28;;
50126;SDS011;36024;47.974;16.398;2023-05-23T09:31:26;8.45;;;7.47;;
50126;SDS011;36024;47.974;16.398;2023-05-23T09:33:56;9.15;;;8.40;;
50126;SDS011;36024;47.974;16.398;2023-05-23T09:36:23;8.32;;;7.53;;
50126;SDS011;36024;47.974;16.398;2023-05-23T09:38:54;8.65;;;7.95;;
50126;SDS011;36024;47.974;16.398;2023-05-23T09:41:22;8.13;;;7.32;;
50126;SDS011;36024;47.974;16.398;2023-05-23T09:43:50;9.13;;;8.07;;
50126;SDS011;36024;47.974;16.398;2023-05-23T09:46:18;8.27;;;7.38;;
50126;SDS011;36024;47.974;16.398;2023-05-23T09:48:47;8.93;;;7.93;;
50126;SDS011;36024;47.974;16.398;2023-05-23T09:51:14;10.80;;;8.40;;
50126;SDS011;36024;47.974;16.398;2023-05-23T09:53:44;8.93;;;7.80;;
50126;SDS011;36024;47.974;16.398;2023-05-23T09:56:11;9.45;;;8.38;;
50126;SDS011;36024;47.974;16.398;2023-05-23T09:58:38;9.25;;;7.85;;
50126;SDS011;36024;47.974;16.398;2023-05-23T10:01:06;8.88;;;7.97;;
50126;SDS011;36024;47.974;16.398;2023-05-23T10:06:21;9.25;;;8.35;;
50126;SDS011;36024;47.974;16.398;2023-05-23T10:08:53;9.18;;;8.35;;
50126;SDS011;36024;47.974;16.398;2023-05-23T10:14:01;10.68;;;8.52;;
50126;SDS011;36024;47.974;16.398;2023-05-23T10:19:27;9.55;;;8.65;;
50126;SDS011;36024;47.974;16.398;2023-05-23T10:22:00;9.20;;;8.18;;
50126;SDS011;36024;47.974;16.398;2023-05-23T10:24:28;9.35;;;8.48;;
50126;SDS011;36024;47.974;16.398;2023-05-23T10:26:55;9.02;;;8.15;;
50126;SDS011;36024;47.974;16.398;2023-05-23T10:29:23;9.23;;;8.40;;
50126;SDS011;36024;47.974;16.398;2023-05-23T10:31:51;9.23;;;8.43;;
50126;SDS011;36024;47.974;16.398;2023-05-23T10:34:24;9.32;;;8.52;;
50126;SDS011;36024;47.974;16.398;2023-05-23T10:36:59;9.50;;;8.70;;
50126;SDS011;36024;47.974;16.398;2023-05-23T10:39:40;9.73;;;8.43;;
50126;SDS011;36024;47.974;16.398;2023-05-23T10:42:40;8.57;;;7.78;;
50126;SDS011;36024;47.974;16.398;2023-05-23T10:45:17;9.00;;;8.25;;
50126;SDS011;36024;47.974;16.398;2023-05-23T10:47:50;9.15;;;8.45;;
50126;SDS011;36024;47.974;16.398;2023-05-23T10:50:42;9.57;;;8.13;;
50126;SDS011;36024;47.974;16.398;2023-05-23T10:53:08;8.80;;;8.10;;
50126;SDS011;36024;47.974;16.398;2023-05-23T10:55:36;8.65;;;7.85;;
50126;SDS011;36024;47.974;16.398;2023-05-23T10:58:10;9.10;;;8.43;;
50126;SDS011;36024;47.974;16.398;2023-05-23T11:00:56;9.50;;;8.63;;
50126;SDS011;36024;47.974;16.398;2023-05-23T11:09:17;9.80;;;8.90;;
50126;SDS011;36024;47.974;16.398;2023-05-23T11:19:38;7.47;;;6.80;;
50126;SDS011;36024;47.974;16.398;2023-05-23T11:22:08;7.30;;;6.70;;
50126;SDS011;36024;47.974;16.398;2023-05-23T11:24:54;7.85;;;7.18;;
50126;SDS011;36024;47.974;16.398;2023-05-23T11:27:28;7.70;;;7.05;;
50126;SDS011;36024;47.974;16.398;2023-05-23T11:29:57;8.07;;;7.28;;
50126;SDS011;36024;47.974;16.398;2023-05-23T11:32:32;7.22;;;6.57;;
50126;SDS011;36024;47.974;16.398;2023-05-23T11:35:02;7.70;;;7.00;;
50126;SDS011;36024;47.974;16.398;2023-05-23T11:37:30;7.07;;;6.45;;
50126;SDS011;36024;47.974;16.398;2023-05-23T11:39:57;7.78;;;7.10;;
50126;SDS011;36024;47.974;16.398;2023-05-23T11:42:24;7.45;;;6.75;;
50126;SDS011;36024;47.974;16.398;2023-05-23T11:44:51;7.60;;;6.90;;
50126;SDS011;36024;47.974;16.398;2023-05-23T11:47:18;8.02;;;7.32;;
50126;SDS011;36024;47.974;16.398;2023-05-23T11:49:45;7.15;;;6.50;;
50126;SDS011;36024;47.974;16.398;2023-05-23T11:52:13;6.88;;;6.38;;
50126;SDS011;36024;47.974;16.398;2023-05-23T11:54:40;7.72;;;7.05;;
50126;SDS011;36024;47.974;16.398;2023-05-23T11:57:08;7.22;;;6.68;;
50126;SDS011;36024;47.974;16.398;2023-05-23T11:59:35;6.95;;;6.45;;
50126;SDS011;36024;47.974;16.398;2023-05-23T12:02:04;6.32;;;5.82;;
50126;SDS011;36024;47.974;16.398;2023-05-23T12:04:33;6.88;;;6.22;;
50126;SDS011;36024;47.974;16.398;2023-05-23T12:07:03;7.28;;;6.68;;
50126;SDS011;36024;47.974;16.398;2023-05-23T12:09:30;6.85;;;6.25;;
50126;SDS011;36024;47.974;16.398;2023-05-23T12:11:56;7.10;;;6.43;;
50126;SDS011;36024;47.974;16.398;2023-05-23T12:14:23;7.50;;;6.78;;
50126;SDS011;36024;47.974;16.398;2023-05-23T12:16:54;6.97;;;6.38;;
50126;SDS011;36024;47.974;16.398;2023-05-23T12:19:21;6.32;;;5.72;;
50126;SDS011;36024;47.974;16.398;2023-05-23T12:21:48;5.97;;;5.47;;
50126;SDS011;36024;47.974;16.398;2023-05-23T12:24:16;6.72;;;6.13;;
50126;SDS011;36024;47.974;16.398;2023-05-23T12:26:47;6.88;;;6.28;;
50126;SDS011;36024;47.974;16.398;2023-05-23T12:29:30;6.38;;;5.78;;
50126;SDS011;36024;47.974;16.398;2023-05-23T12:32:01;6.43;;;5.75;;
50126;SDS011;36024;47.974;16.398;2023-05-23T12:34:30;7.20;;;6.50;;
50126;SDS011;36024;47.974;16.398;2023-05-23T12:36:57;7.00;;;6.30;;
50126;SDS011;36024;47.974;16.398;2023-05-23T12:39:44;6.57;;;5.97;;
50126;SDS011;36024;47.974;16.398;2023-05-23T12:42:11;6.68;;;6.07;;
50126;SDS011;36024;47.974;16.398;2023-05-23T12:44:39;6.45;;;5.82;;
50126;SDS011;36024;47.974;16.398;2023-05-23T12:47:06;6.00;;;5.50;;
50126;SDS011;36024;47.974;16.398;2023-05-23T12:49:33;6.38;;;5.88;;
50126;SDS011;36024;47.974;16.398;2023-05-23T12:52:00;6.47;;;5.90;;
50126;SDS011;36024;47.974;16.398;2023-05-23T12:54:26;6.45;;;5.85;;
50126;SDS011;36024;47.974;16.398;2023-05-23T12:56:53;5.85;;;5.35;;
50126;SDS011;36024;47.974;16.398;2023-05-23T12:59:20;6.40;;;5.80;;
50126;SDS011;36024;47.974;16.398;2023-05-23T13:01:46;5.82;;;5.30;;
50126;SDS011;36024;47.974;16.398;2023-05-23T13:04:13;5.70;;;5.20;;
50126;SDS011;36024;47.974;16.398;2023-05-23T13:06:40;17.73;;;6.60;;
50126;SDS011;36024;47.974;16.398;2023-05-23T13:09:07;6.40;;;5.72;;
50126;SDS011;36024;47.974;16.398;2023-05-23T13:11:33;6.53;;;5.57;;
50126;SDS011;36024;47.974;16.398;2023-05-23T13:14:00;6.68;;;5.95;;
50126;SDS011;36024;47.974;16.398;2023-05-23T13:16:27;6.03;;;5.53;;
50126;SDS011;36024;47.974;16.398;2023-05-23T13:18:53;6.00;;;5.50;;
50126;SDS011;36024;47.974;16.398;2023-05-23T13:21:20;5.82;;;5.30;;
50126;SDS011;36024;47.974;16.398;2023-05-23T13:23:47;5.80;;;5.35;;
50126;SDS011;36024;47.974;16.398;2023-05-23T13:26:14;7.65;;;6.13;;
50126;SDS011;36024;47.974;16.398;2023-05-23T13:28:41;7.22;;;6.43;;
50126;SDS011;36024;47.974;16.398;2023-05-23T13:31:07;7.20;;;6.50;;
50126;SDS011;36024;47.974;16.398;2023-05-23T13:33:34;7.50;;;6.78;;
50126;SDS011;36024;47.974;16.398;2023-05-23T13:36:01;8.02;;;6.32;;
50126;SDS011;36024;47.974;16.398;2023-05-23T13:38:28;7.60;;;6.90;;
50126;SDS011;36024;47.974;16.398;2023-05-23T13:40:57;7.75;;;7.05;;
50126;SDS011;36024;47.974;16.398;2023-05-23T13:43:23;7.95;;;7.22;;
50126;SDS011;36024;47.974;16.398;2023-05-23T13:45:50;6.75;;;6.05;;
50126;SDS011;36024;47.974;16.398;2023-05-23T13:48:17;7.05;;;6.18;;
50126;SDS011;36024;47.974;16.398;2023-05-23T13:50:44;6.25;;;5.50;;
50126;SDS011;36024;47.974;16.398;2023-05-23T13:53:11;5.05;;;4.65;;
50126;SDS011;36024;47.974;16.398;2023-05-23T13:55:42;5.22;;;4.70;;
50126;SDS011;36024;47.974;16.398;2023-05-23T13:58:10;5.22;;;4.72;;
50126;SDS011;36024;47.974;16.398;2023-05-23T14:00:38;5.78;;;5.25;;
50126;SDS011;36024;47.974;16.398;2023-05-23T14:03:05;7.10;;;4.90;;
50126;SDS011;36024;47.974;16.398;2023-05-23T14:05:33;6.72;;;5.57;;
50126;SDS011;36024;47.974;16.398;2023-05-23T14:08:01;6.10;;;5.60;;
50126;SDS011;36024;47.974;16.398;2023-05-23T14:10:29;6.60;;;5.88;;
50126;SDS011;36024;47.974;16.398;2023-05-23T14:12:56;6.25;;;5.65;;
50126;SDS011;36024;47.974;16.398;2023-05-23T14:15:22;7.75;;;5.88;;
50126;SDS011;36024;47.974;16.398;2023-05-23T14:17:49;6.35;;;5.68;;
50126;SDS011;36024;47.974;16.398;2023-05-23T14:20:20;6.15;;;5.53;;
50126;SDS011;36024;47.974;16.398;2023-05-23T14:22:48;6.38;;;5.78;;
50126;SDS011;36024;47.974;16.398;2023-05-23T14:25:16;5.82;;;5.32;;
50126;SDS011;36024;47.974;16.398;2023-05-23T14:27:43;6.07;;;5.57;;
50126;SDS011;36024;47.974;16.398;2023-05-23T14:30:10;6.07;;;5.47;;
50126;SDS011;36024;47.974;16.398;2023-05-23T14:32:36;7.63;;;5.72;;
50126;SDS011;36024;47.974;16.398;2023-05-23T14:35:08;6.47;;;5.85;;
50126;SDS011;36024;47.974;16.398;2023-05-23T14:37:35;6.10;;;5.60;;
50126;SDS011;36024;47.974;16.398;2023-05-23T14:40:03;6.65;;;6.15;;
50126;SDS011;36024;47.974;16.398;2023-05-23T14:42:30;7.53;;;6.82;;
50126;SDS011;36024;47.974;16.398;2023-05-23T14:44:57;10.13;;;7.90;;
50126;SDS011;36024;47.974;16.398;2023-05-23T14:47:24;13.43;;;8.43;;
50126;SDS011;36024;47.974;16.398;2023-05-23T14:49:51;8.80;;;7.95;;
50126;SDS011;36024;47.974;16.398;2023-05-23T14:52:17;12.53;;;8.60;;
50126;SDS011;36024;47.974;16.398;2023-05-23T14:54:44;9.80;;;8.90;;
50126;SDS011;36024;47.974;16.398;2023-05-23T14:57:11;12.20;;;9.93;;
50126;SDS011;36024;47.974;16.398;2023-05-23T14:59:37;13.70;;;9.60;;
50126;SDS011;36024;47.974;16.398;2023-05-23T15:02:04;10.70;;;9.53;;
50126;SDS011;36024;47.974;16.398;2023-05-23T15:04:34;12.13;;;10.93;;
50126;SDS011;36024;47.974;16.398;2023-05-23T15:07:01;12.30;;;11.20;;